sensor_id;sensor_type;location;lat;lon;timestamp;P1;durP1;ratioP1;P2;durP2;ratioP2
72755;SDS011;60881;55.002;73.232;2022-09-24T00:01:49;54.10;;;21.02;;
72755;SDS011;60881;55.002;73.232;2022-09-24T00:04:26;58.55;;;21.40;;
72755;SDS011;60881;55.002;73.232;2022-09-24T00:06:52;55.85;;;20.42;;
72755;SDS011;60881;55.002;73.232;2022-09-24T00:09:22;53.00;;;20.67;;
72755;SDS011;60881;55.002;73.232;2022-09-24T00:11:54;59.42;;;20.60;;
72755;SDS011;60881;55.002;73.232;2022-09-24T00:14:26;59.47;;;21.85;;
72755;SDS011;60881;55.002;73.232;2022-09-24T00:16:54;56.13;;;20.85;;
72755;SDS011;60881;55.002;73.232;2022-09-24T00:19:20;59.83;;;20.60;;
72755;SDS011;60881;55.002;73.232;2022-09-24T00:21:49;53.50;;;21.85;;
72755;SDS011;60881;55.002;73.232;2022-09-24T00:24:16;57.42;;;21.50;;
72755;SDS011;60881;55.002;73.232;2022-09-24T00:27:02;51.75;;;21.20;;
72755;SDS011;60881;55.002;73.232;2022-09-24T00:29:38;50.35;;;21.10;;
72755;SDS011;60881;55.002;73.232;2022-09-24T00:32:05;55.28;;;21.33;;
72755;SDS011;60881;55.002;73.232;2022-09-24T00:34:32;47.85;;;20.55;;
72755;SDS011;60881;55.002;73.232;2022-09-24T00:36:58;56.83;;;21.45;;
72755;SDS011;60881;55.002;73.232;2022-09-24T00:39:25;58.58;;;21.10;;
72755;SDS011;60881;55.002;73.232;2022-09-24T00:42:01;50.55;;;21.50;;
72755;SDS011;60881;55.002;73.232;2022-09-24T00:44:42;60.60;;;22.40;;
72755;SDS011;60881;55.002;73.232;2022-09-24T00:47:22;59.08;;;21.30;;
72755;SDS011;60881;55.002;73.232;2022-09-24T00:49:57;56.95;;;20.35;;
72755;SDS011;60881;55.002;73.232;2022-09-24T00:52:45;62.33;;;23.20;;
72755;SDS011;60881;55.002;73.232;2022-09-24T00:55:17;56.38;;;22.85;;
72755;SDS011;60881;55.002;73.232;2022-09-24T00:57:46;62.13;;;23.20;;
72755;SDS011;60881;55.002;73.232;2022-09-24T01:00:16;54.55;;;22.75;;
72755;SDS011;60881;55.002;73.232;2022-09-24T01:02:44;57.72;;;23.50;;
72755;SDS011;60881;55.002;73.232;2022-09-24T01:05:23;53.03;;;23.50;;
72755;SDS011;60881;55.002;73.232;2022-09-24T01:07:50;52.90;;;23.70;;
72755;SDS011;60881;55.002;73.232;2022-09-24T01:10:16;56.35;;;22.75;;
72755;SDS011;60881;55.002;73.232;2022-09-24T01:16:08;60.88;;;23.00;;
72755;SDS011;60881;55.002;73.232;2022-09-24T01:18:49;59.90;;;22.38;;
72755;SDS011;60881;55.002;73.232;2022-09-24T01:27:03;63.67;;;23.98;;
72755;SDS011;60881;55.002;73.232;2022-09-24T01:29:35;50.47;;;23.55;;
72755;SDS011;60881;55.002;73.232;2022-09-24T01:37:57;58.88;;;24.27;;
72755;SDS011;60881;55.002;73.232;2022-09-24T01:40:28;60.58;;;24.20;;
72755;SDS011;60881;55.002;73.232;2022-09-24T01:43:01;57.20;;;23.75;;
72755;SDS011;60881;55.002;73.232;2022-09-24T01:45:31;63.55;;;23.88;;
72755;SDS011;60881;55.002;73.232;2022-09-24T01:48:01;69.72;;;23.20;;
72755;SDS011;60881;55.002;73.232;2022-09-24T01:50:30;65.72;;;24.30;;
72755;SDS011;60881;55.002;73.232;2022-09-24T01:53:16;61.63;;;22.65;;
72755;SDS011;60881;55.002;73.232;2022-09-24T01:55:47;77.53;;;22.55;;
72755;SDS011;60881;55.002;73.232;2022-09-24T01:58:20;71.90;;;19.88;;
72755;SDS011;60881;55.002;73.232;2022-09-24T02:00:53;71.25;;;19.60;;
72755;SDS011;60881;55.002;73.232;2022-09-24T02:03:28;58.38;;;19.05;;
72755;SDS011;60881;55.002;73.232;2022-09-24T02:06:01;46.00;;;19.55;;
72755;SDS011;60881;55.002;73.232;2022-09-24T02:08:37;50.17;;;18.07;;
72755;SDS011;60881;55.002;73.232;2022-09-24T02:11:06;50.03;;;17.75;;
72755;SDS011;60881;55.002;73.232;2022-09-24T02:13:41;48.70;;;16.73;;
72755;SDS011;60881;55.002;73.232;2022-09-24T02:16:14;48.08;;;16.42;;
72755;SDS011;60881;55.002;73.232;2022-09-24T02:18:47;49.95;;;16.67;;
72755;SDS011;60881;55.002;73.232;2022-09-24T02:21:28;58.65;;;16.50;;
72755;SDS011;60881;55.002;73.232;2022-09-24T02:23:58;45.05;;;15.43;;
72755;SDS011;60881;55.002;73.232;2022-09-24T02:26:29;66.97;;;16.00;;
72755;SDS011;60881;55.002;73.232;2022-09-24T02:28:56;50.70;;;16.95;;
72755;SDS011;60881;55.002;73.232;2022-09-24T02:31:26;54.65;;;15.32;;
72755;SDS011;60881;55.002;73.232;2022-09-24T02:33:56;68.25;;;15.63;;
72755;SDS011;60881;55.002;73.232;2022-09-24T02:36:48;49.13;;;13.63;;
72755;SDS011;60881;55.002;73.232;2022-09-24T02:39:17;38.83;;;14.85;;
72755;SDS011;60881;55.002;73.232;2022-09-24T02:41:44;82.28;;;14.93;;
72755;SDS011;60881;55.002;73.232;2022-09-24T02:44:17;64.10;;;14.30;;
72755;SDS011;60881;55.002;73.232;2022-09-24T02:46:45;47.05;;;14.02;;
72755;SDS011;60881;55.002;73.232;2022-09-24T02:49:12;58.85;;;15.07;;
72755;SDS011;60881;55.002;73.232;2022-09-24T02:51:40;59.43;;;13.57;;
72755;SDS011;60881;55.002;73.232;2022-09-24T02:54:07;55.13;;;13.57;;
72755;SDS011;60881;55.002;73.232;2022-09-24T02:56:34;38.00;;;12.95;;
72755;SDS011;60881;55.002;73.232;2022-09-24T02:59:00;41.72;;;13.07;;
72755;SDS011;60881;55.002;73.232;2022-09-24T03:01:28;47.47;;;13.60;;
72755;SDS011;60881;55.002;73.232;2022-09-24T03:03:55;65.18;;;13.02;;
72755;SDS011;60881;55.002;73.232;2022-09-24T03:06:22;63.40;;;13.82;;
72755;SDS011;60881;55.002;73.232;2022-09-24T03:08:51;61.42;;;13.05;;
72755;SDS011;60881;55.002;73.232;2022-09-24T03:11:19;63.25;;;12.95;;
72755;SDS011;60881;55.002;73.232;2022-09-24T03:13:52;65.03;;;12.90;;
72755;SDS011;60881;55.002;73.232;2022-09-24T03:16:22;57.97;;;12.50;;
72755;SDS011;60881;55.002;73.232;2022-09-24T03:18:48;59.72;;;12.57;;
72755;SDS011;60881;55.002;73.232;2022-09-24T03:21:17;48.85;;;12.13;;
72755;SDS011;60881;55.002;73.232;2022-09-24T03:23:46;45.17;;;12.73;;
72755;SDS011;60881;55.002;73.232;2022-09-24T03:26:13;65.35;;;12.43;;
72755;SDS011;60881;55.002;73.232;2022-09-24T03:28:40;42.40;;;11.95;;
72755;SDS011;60881;55.002;73.232;2022-09-24T03:31:06;59.53;;;11.25;;
72755;SDS011;60881;55.002;73.232;2022-09-24T03:33:36;36.10;;;11.43;;
72755;SDS011;60881;55.002;73.232;2022-09-24T03:36:09;62.78;;;11.70;;
72755;SDS011;60881;55.002;73.232;2022-09-24T03:38:38;55.85;;;11.50;;
72755;SDS011;60881;55.002;73.232;2022-09-24T03:41:05;51.33;;;12.27;;
72755;SDS011;60881;55.002;73.232;2022-09-24T03:43:33;63.95;;;12.20;;
72755;SDS011;60881;55.002;73.232;2022-09-24T03:46:04;46.70;;;11.68;;
72755;SDS011;60881;55.002;73.232;2022-09-24T03:48:46;50.95;;;11.35;;
72755;SDS011;60881;55.002;73.232;2022-09-24T03:51:16;61.75;;;11.52;;
72755;SDS011;60881;55.002;73.232;2022-09-24T03:53:45;75.70;;;11.57;;
72755;SDS011;60881;55.002;73.232;2022-09-24T03:56:12;50.97;;;11.40;;
72755;SDS011;60881;55.002;73.232;2022-09-24T03:58:50;55.78;;;11.23;;
72755;SDS011;60881;55.002;73.232;2022-09-24T04:01:17;42.72;;;10.93;;
72755;SDS011;60881;55.002;73.232;2022-09-24T04:03:45;55.17;;;10.40;;
72755;SDS011;60881;55.002;73.232;2022-09-24T04:06:12;56.33;;;10.70;;
72755;SDS011;60881;55.002;73.232;2022-09-24T04:08:39;62.95;;;10.55;;
72755;SDS011;60881;55.002;73.232;2022-09-24T04:11:07;50.97;;;10.15;;
72755;SDS011;60881;55.002;73.232;2022-09-24T04:13:33;42.20;;;9.45;;
72755;SDS011;60881;55.002;73.232;2022-09-24T04:16:01;49.55;;;10.23;;
72755;SDS011;60881;55.002;73.232;2022-09-24T04:18:38;53.90;;;9.50;;
72755;SDS011;60881;55.002;73.232;2022-09-24T04:21:06;46.75;;;9.15;;
72755;SDS011;60881;55.002;73.232;2022-09-24T04:23:33;61.15;;;10.18;;
72755;SDS011;60881;55.002;73.232;2022-09-24T04:25:59;45.72;;;9.27;;
72755;SDS011;60881;55.002;73.232;2022-09-24T04:28:27;55.85;;;10.05;;
72755;SDS011;60881;55.002;73.232;2022-09-24T04:30:54;52.00;;;9.02;;
72755;SDS011;60881;55.002;73.232;2022-09-24T04:33:21;44.40;;;8.65;;
72755;SDS011;60881;55.002;73.232;2022-09-24T04:35:47;43.45;;;8.63;;
72755;SDS011;60881;55.002;73.232;2022-09-24T04:38:14;46.38;;;8.95;;
72755;SDS011;60881;55.002;73.232;2022-09-24T04:40:47;48.65;;;9.40;;
72755;SDS011;60881;55.002;73.232;2022-09-24T04:43:15;59.90;;;9.30;;
72755;SDS011;60881;55.002;73.232;2022-09-24T04:45:45;48.05;;;9.32;;
72755;SDS011;60881;55.002;73.232;2022-09-24T04:48:12;51.95;;;9.48;;
72755;SDS011;60881;55.002;73.232;2022-09-24T04:50:39;60.67;;;9.52;;
72755;SDS011;60881;55.002;73.232;2022-09-24T04:53:05;53.63;;;9.32;;
72755;SDS011;60881;55.002;73.232;2022-09-24T04:55:32;56.08;;;9.68;;
72755;SDS011;60881;55.002;73.232;2022-09-24T04:57:58;61.58;;;10.05;;
72755;SDS011;60881;55.002;73.232;2022-09-24T05:00:36;44.97;;;9.35;;
72755;SDS011;60881;55.002;73.232;2022-09-24T05:03:04;56.42;;;9.38;;
72755;SDS011;60881;55.002;73.232;2022-09-24T05:05:33;53.53;;;9.90;;
72755;SDS011;60881;55.002;73.232;2022-09-24T05:08:00;62.13;;;10.18;;
72755;SDS011;60881;55.002;73.232;2022-09-24T05:10:28;58.53;;;10.15;;
72755;SDS011;60881;55.002;73.232;2022-09-24T05:12:59;66.13;;;10.25;;
72755;SDS011;60881;55.002;73.232;2022-09-24T05:15:26;72.28;;;10.35;;
72755;SDS011;60881;55.002;73.232;2022-09-24T05:17:53;72.68;;;11.25;;
72755;SDS011;60881;55.002;73.232;2022-09-24T05:20:19;61.20;;;10.73;;
72755;SDS011;60881;55.002;73.232;2022-09-24T05:22:46;64.85;;;11.02;;
72755;SDS011;60881;55.002;73.232;2022-09-24T05:25:14;76.80;;;10.45;;
72755;SDS011;60881;55.002;73.232;2022-09-24T05:27:44;50.45;;;9.57;;
72755;SDS011;60881;55.002;73.232;2022-09-24T05:30:11;49.15;;;9.35;;
72755;SDS011;60881;55.002;73.232;2022-09-24T05:32:39;58.85;;;9.15;;
72755;SDS011;60881;55.002;73.232;2022-09-24T05:35:06;70.07;;;8.65;;
72755;SDS011;60881;55.002;73.232;2022-09-24T05:37:36;43.67;;;8.02;;
72755;SDS011;60881;55.002;73.232;2022-09-24T05:40:04;46.72;;;6.97;;
72755;SDS011;60881;55.002;73.232;2022-09-24T05:42:51;48.80;;;7.15;;
72755;SDS011;60881;55.002;73.232;2022-09-24T05:45:23;39.55;;;5.20;;
72755;SDS011;60881;55.002;73.232;2022-09-24T05:47:51;38.65;;;6.00;;
72755;SDS011;60881;55.002;73.232;2022-09-24T05:50:17;33.75;;;5.93;;
72755;SDS011;60881;55.002;73.232;2022-09-24T05:52:55;42.70;;;5.85;;
72755;SDS011;60881;55.002;73.232;2022-09-24T05:55:22;34.03;;;5.78;;
72755;SDS011;60881;55.002;73.232;2022-09-24T05:57:49;36.38;;;5.50;;
72755;SDS011;60881;55.002;73.232;2022-09-24T06:00:16;64.20;;;6.40;;
72755;SDS011;60881;55.002;73.232;2022-09-24T06:02:43;36.55;;;5.65;;
72755;SDS011;60881;55.002;73.232;2022-09-24T06:05:09;49.10;;;6.00;;
72755;SDS011;60881;55.002;73.232;2022-09-24T06:07:36;44.78;;;5.93;;
72755;SDS011;60881;55.002;73.232;2022-09-24T06:10:03;31.15;;;5.85;;
72755;SDS011;60881;55.002;73.232;2022-09-24T06:12:32;34.35;;;5.50;;
72755;SDS011;60881;55.002;73.232;2022-09-24T06:15:01;39.38;;;5.72;;
72755;SDS011;60881;55.002;73.232;2022-09-24T06:17:29;59.00;;;5.75;;
72755;SDS011;60881;55.002;73.232;2022-09-24T06:19:56;35.85;;;5.65;;
72755;SDS011;60881;55.002;73.232;2022-09-24T06:22:24;44.38;;;5.80;;
72755;SDS011;60881;55.002;73.232;2022-09-24T06:24:50;47.33;;;5.93;;
72755;SDS011;60881;55.002;73.232;2022-09-24T06:27:17;36.45;;;5.78;;
72755;SDS011;60881;55.002;73.232;2022-09-24T06:29:44;43.40;;;5.90;;
72755;SDS011;60881;55.002;73.232;2022-09-24T06:32:11;29.13;;;5.68;;
72755;SDS011;60881;55.002;73.232;2022-09-24T06:34:38;44.70;;;7.43;;
72755;SDS011;60881;55.002;73.232;2022-09-24T06:37:05;41.22;;;7.53;;
72755;SDS011;60881;55.002;73.232;2022-09-24T06:39:32;41.85;;;7.32;;
72755;SDS011;60881;55.002;73.232;2022-09-24T06:41:58;41.85;;;6.47;;
72755;SDS011;60881;55.002;73.232;2022-09-24T06:44:34;42.80;;;6.30;;
72755;SDS011;60881;55.002;73.232;2022-09-24T06:47:00;38.38;;;6.10;;
72755;SDS011;60881;55.002;73.232;2022-09-24T06:49:27;31.42;;;6.18;;
72755;SDS011;60881;55.002;73.232;2022-09-24T06:51:55;83.63;;;7.72;;
72755;SDS011;60881;55.002;73.232;2022-09-24T06:54:24;43.03;;;5.97;;
72755;SDS011;60881;55.002;73.232;2022-09-24T06:56:51;43.22;;;6.28;;
72755;SDS011;60881;55.002;73.232;2022-09-24T06:59:17;34.17;;;5.60;;
72755;SDS011;60881;55.002;73.232;2022-09-24T07:01:45;63.60;;;6.15;;
72755;SDS011;60881;55.002;73.232;2022-09-24T07:04:11;41.90;;;5.82;;
72755;SDS011;60881;55.002;73.232;2022-09-24T07:06:38;37.97;;;5.30;;
72755;SDS011;60881;55.002;73.232;2022-09-24T07:09:27;27.60;;;5.07;;
72755;SDS011;60881;55.002;73.232;2022-09-24T07:11:59;36.13;;;6.20;;
72755;SDS011;60881;55.002;73.232;2022-09-24T07:14:30;35.30;;;5.30;;
72755;SDS011;60881;55.002;73.232;2022-09-24T07:16:58;103.65;;;7.07;;
72755;SDS011;60881;55.002;73.232;2022-09-24T07:19:26;60.33;;;6.88;;
72755;SDS011;60881;55.002;73.232;2022-09-24T07:21:52;38.03;;;5.90;;
72755;SDS011;60881;55.002;73.232;2022-09-24T07:24:18;37.15;;;5.57;;
72755;SDS011;60881;55.002;73.232;2022-09-24T07:26:45;30.00;;;6.07;;
72755;SDS011;60881;55.002;73.232;2022-09-24T07:29:11;31.40;;;5.53;;
72755;SDS011;60881;55.002;73.232;2022-09-24T07:31:37;35.50;;;5.40;;
72755;SDS011;60881;55.002;73.232;2022-09-24T07:34:05;29.48;;;5.20;;
72755;SDS011;60881;55.002;73.232;2022-09-24T07:36:39;37.05;;;5.30;;
72755;SDS011;60881;55.002;73.232;2022-09-24T07:39:07;24.67;;;4.95;;
72755;SDS011;60881;55.002;73.232;2022-09-24T07:41:33;37.92;;;5.57;;
72755;SDS011;60881;55.002;73.232;2022-09-24T07:44:00;32.72;;;6.28;;
72755;SDS011;60881;55.002;73.232;2022-09-24T07:46:27;51.28;;;5.18;;
72755;SDS011;60881;55.002;73.232;2022-09-24T07:48:55;42.65;;;4.95;;
72755;SDS011;60881;55.002;73.232;2022-09-24T07:51:22;28.88;;;5.28;;
72755;SDS011;60881;55.002;73.232;2022-09-24T07:53:50;28.02;;;5.00;;
72755;SDS011;60881;55.002;73.232;2022-09-24T07:56:17;25.75;;;5.22;;
72755;SDS011;60881;55.002;73.232;2022-09-24T07:58:46;27.25;;;5.43;;
72755;SDS011;60881;55.002;73.232;2022-09-24T08:01:17;33.97;;;5.75;;
72755;SDS011;60881;55.002;73.232;2022-09-24T08:03:44;47.63;;;5.10;;
72755;SDS011;60881;55.002;73.232;2022-09-24T08:06:14;43.35;;;5.75;;
72755;SDS011;60881;55.002;73.232;2022-09-24T08:08:40;43.60;;;6.80;;
72755;SDS011;60881;55.002;73.232;2022-09-24T08:11:10;32.05;;;5.80;;
72755;SDS011;60881;55.002;73.232;2022-09-24T08:13:38;37.88;;;6.70;;
72755;SDS011;60881;55.002;73.232;2022-09-24T08:16:05;31.77;;;5.88;;
72755;SDS011;60881;55.002;73.232;2022-09-24T08:18:32;37.45;;;5.65;;
72755;SDS011;60881;55.002;73.232;2022-09-24T08:21:05;41.72;;;12.05;;
72755;SDS011;60881;55.002;73.232;2022-09-24T08:23:35;36.75;;;9.63;;
72755;SDS011;60881;55.002;73.232;2022-09-24T08:26:01;34.78;;;5.40;;
72755;SDS011;60881;55.002;73.232;2022-09-24T08:28:29;50.55;;;6.75;;
72755;SDS011;60881;55.002;73.232;2022-09-24T08:30:59;59.75;;;9.00;;
72755;SDS011;60881;55.002;73.232;2022-09-24T08:33:27;45.47;;;10.45;;
72755;SDS011;60881;55.002;73.232;2022-09-24T08:35:57;37.25;;;7.93;;
72755;SDS011;60881;55.002;73.232;2022-09-24T08:38:24;59.22;;;9.65;;
72755;SDS011;60881;55.002;73.232;2022-09-24T08:40:53;59.60;;;10.25;;
72755;SDS011;60881;55.002;73.232;2022-09-24T08:43:59;33.78;;;5.97;;
72755;SDS011;60881;55.002;73.232;2022-09-24T08:46:35;55.88;;;8.10;;
72755;SDS011;60881;55.002;73.232;2022-09-24T08:49:41;39.60;;;11.20;;
72755;SDS011;60881;55.002;73.232;2022-09-24T08:55:09;38.90;;;6.85;;
72755;SDS011;60881;55.002;73.232;2022-09-24T09:03:35;54.22;;;9.27;;
72755;SDS011;60881;55.002;73.232;2022-09-24T09:08:44;37.88;;;8.48;;
72755;SDS011;60881;55.002;73.232;2022-09-24T09:11:14;27.58;;;5.55;;
72755;SDS011;60881;55.002;73.232;2022-09-24T09:13:45;43.60;;;5.38;;
72755;SDS011;60881;55.002;73.232;2022-09-24T09:16:38;51.35;;;5.95;;
72755;SDS011;60881;55.002;73.232;2022-09-24T09:19:22;34.38;;;5.00;;
72755;SDS011;60881;55.002;73.232;2022-09-24T09:21:56;37.97;;;5.75;;
72755;SDS011;60881;55.002;73.232;2022-09-24T09:27:15;28.67;;;4.88;;
72755;SDS011;60881;55.002;73.232;2022-09-24T09:29:43;36.67;;;6.53;;
72755;SDS011;60881;55.002;73.232;2022-09-24T09:32:21;40.55;;;5.70;;
72755;SDS011;60881;55.002;73.232;2022-09-24T09:43:14;201.63;;;8.68;;
72755;SDS011;60881;55.002;73.232;2022-09-24T09:45:43;46.92;;;5.85;;
72755;SDS011;60881;55.002;73.232;2022-09-24T09:48:52;52.55;;;5.90;;
72755;SDS011;60881;55.002;73.232;2022-09-24T09:51:27;51.70;;;7.93;;
72755;SDS011;60881;55.002;73.232;2022-09-24T09:56:44;69.97;;;8.90;;
72755;SDS011;60881;55.002;73.232;2022-09-24T10:01:48;55.85;;;5.53;;
72755;SDS011;60881;55.002;73.232;2022-09-24T10:04:23;49.15;;;5.53;;
72755;SDS011;60881;55.002;73.232;2022-09-24T10:07:16;59.10;;;5.82;;
72755;SDS011;60881;55.002;73.232;2022-09-24T10:09:43;41.70;;;4.95;;
72755;SDS011;60881;55.002;73.232;2022-09-24T10:12:18;26.67;;;4.53;;
72755;SDS011;60881;55.002;73.232;2022-09-24T10:14:57;51.03;;;7.03;;
72755;SDS011;60881;55.002;73.232;2022-09-24T10:17:34;32.97;;;4.78;;
72755;SDS011;60881;55.002;73.232;2022-09-24T10:20:46;47.22;;;5.40;;
72755;SDS011;60881;55.002;73.232;2022-09-24T10:22:58;26.23;;;4.88;;
72755;SDS011;60881;55.002;73.232;2022-09-24T10:25:32;45.35;;;5.72;;
72755;SDS011;60881;55.002;73.232;2022-09-24T10:28:06;30.10;;;4.77;;
72755;SDS011;60881;55.002;73.232;2022-09-24T10:30:58;40.83;;;5.13;;
72755;SDS011;60881;55.002;73.232;2022-09-24T10:33:46;37.55;;;5.38;;
72755;SDS011;60881;55.002;73.232;2022-09-24T10:36:16;54.50;;;6.25;;
72755;SDS011;60881;55.002;73.232;2022-09-24T10:41:44;48.70;;;6.25;;
72755;SDS011;60881;55.002;73.232;2022-09-24T10:44:11;43.92;;;5.95;;
72755;SDS011;60881;55.002;73.232;2022-09-24T10:49:46;35.33;;;5.43;;
72755;SDS011;60881;55.002;73.232;2022-09-24T10:55:19;42.65;;;5.57;;
72755;SDS011;60881;55.002;73.232;2022-09-24T10:58:07;36.50;;;5.95;;
72755;SDS011;60881;55.002;73.232;2022-09-24T11:06:27;52.70;;;7.40;;
72755;SDS011;60881;55.002;73.232;2022-09-24T11:20:28;55.97;;;6.57;;
72755;SDS011;60881;55.002;73.232;2022-09-24T11:23:10;62.05;;;7.05;;
72755;SDS011;60881;55.002;73.232;2022-09-24T11:28:26;109.18;;;9.15;;
72755;SDS011;60881;55.002;73.232;2022-09-24T11:34:28;48.83;;;5.82;;
72755;SDS011;60881;55.002;73.232;2022-09-24T11:37:12;39.70;;;5.18;;
72755;SDS011;60881;55.002;73.232;2022-09-24T11:40:09;44.38;;;5.90;;
72755;SDS011;60881;55.002;73.232;2022-09-24T11:50:56;41.03;;;5.53;;
72755;SDS011;60881;55.002;73.232;2022-09-24T11:53:43;52.03;;;5.00;;
72755;SDS011;60881;55.002;73.232;2022-09-24T11:56:17;74.60;;;5.75;;
72755;SDS011;60881;55.002;73.232;2022-09-24T11:58:58;46.15;;;5.97;;
72755;SDS011;60881;55.002;73.232;2022-09-24T12:01:48;50.17;;;5.78;;
72755;SDS011;60881;55.002;73.232;2022-09-24T12:04:54;42.22;;;5.70;;
72755;SDS011;60881;55.002;73.232;2022-09-24T12:07:31;42.13;;;5.30;;
72755;SDS011;60881;55.002;73.232;2022-09-24T12:10:17;48.67;;;5.68;;
72755;SDS011;60881;55.002;73.232;2022-09-24T12:13:33;69.65;;;6.38;;
72755;SDS011;60881;55.002;73.232;2022-09-24T12:16:04;52.55;;;6.97;;
72755;SDS011;60881;55.002;73.232;2022-09-24T12:23:40;44.45;;;6.57;;
72755;SDS011;60881;55.002;73.232;2022-09-24T12:26:09;60.75;;;8.50;;
72755;SDS011;60881;55.002;73.232;2022-09-24T12:28:57;63.38;;;8.75;;
72755;SDS011;60881;55.002;73.232;2022-09-24T12:37:14;76.53;;;10.63;;
72755;SDS011;60881;55.002;73.232;2022-09-24T12:39:49;90.70;;;9.75;;
72755;SDS011;60881;55.002;73.232;2022-09-24T12:42:43;61.47;;;8.27;;
72755;SDS011;60881;55.002;73.232;2022-09-24T12:45:20;76.55;;;10.18;;
72755;SDS011;60881;55.002;73.232;2022-09-24T12:47:51;86.38;;;9.98;;
72755;SDS011;60881;55.002;73.232;2022-09-24T12:50:33;80.60;;;10.02;;
72755;SDS011;60881;55.002;73.232;2022-09-24T12:53:20;92.25;;;11.02;;
72755;SDS011;60881;55.002;73.232;2022-09-24T12:55:59;93.30;;;12.13;;
72755;SDS011;60881;55.002;73.232;2022-09-24T12:58:43;104.88;;;11.70;;
72755;SDS011;60881;55.002;73.232;2022-09-24T13:01:32;84.57;;;11.10;;
72755;SDS011;60881;55.002;73.232;2022-09-24T13:06:39;95.07;;;12.68;;
72755;SDS011;60881;55.002;73.232;2022-09-24T13:14:54;93.07;;;10.77;;
72755;SDS011;60881;55.002;73.232;2022-09-24T13:17:29;72.70;;;11.05;;
72755;SDS011;60881;55.002;73.232;2022-09-24T13:20:17;77.80;;;15.23;;
72755;SDS011;60881;55.002;73.232;2022-09-24T13:23:10;149.70;;;43.15;;
72755;SDS011;60881;55.002;73.232;2022-09-24T13:28:31;110.35;;;20.08;;
72755;SDS011;60881;55.002;73.232;2022-09-24T13:31:09;88.57;;;16.80;;
72755;SDS011;60881;55.002;73.232;2022-09-24T13:33:45;95.72;;;14.52;;
72755;SDS011;60881;55.002;73.232;2022-09-24T13:39:04;116.95;;;22.52;;
72755;SDS011;60881;55.002;73.232;2022-09-24T13:42:07;126.00;;;24.40;;
72755;SDS011;60881;55.002;73.232;2022-09-24T13:45:04;128.63;;;17.85;;
72755;SDS011;60881;55.002;73.232;2022-09-24T13:47:40;91.20;;;20.83;;
72755;SDS011;60881;55.002;73.232;2022-09-24T13:50:11;131.55;;;23.65;;
72755;SDS011;60881;55.002;73.232;2022-09-24T13:55:20;108.43;;;24.65;;
72755;SDS011;60881;55.002;73.232;2022-09-24T13:57:50;94.55;;;23.77;;
72755;SDS011;60881;55.002;73.232;2022-09-24T14:00:22;104.47;;;18.70;;
72755;SDS011;60881;55.002;73.232;2022-09-24T14:05:29;130.68;;;25.90;;
72755;SDS011;60881;55.002;73.232;2022-09-24T14:08:08;147.50;;;34.03;;
72755;SDS011;60881;55.002;73.232;2022-09-24T14:10:38;165.65;;;37.50;;
72755;SDS011;60881;55.002;73.232;2022-09-24T14:13:16;168.70;;;36.35;;
72755;SDS011;60881;55.002;73.232;2022-09-24T14:15:56;193.63;;;40.60;;
72755;SDS011;60881;55.002;73.232;2022-09-24T14:18:32;145.32;;;42.95;;
72755;SDS011;60881;55.002;73.232;2022-09-24T14:21:16;168.10;;;43.40;;
72755;SDS011;60881;55.002;73.232;2022-09-24T14:28:59;178.20;;;49.13;;
72755;SDS011;60881;55.002;73.232;2022-09-24T14:31:45;164.88;;;48.97;;
72755;SDS011;60881;55.002;73.232;2022-09-24T14:34:30;160.43;;;47.35;;
72755;SDS011;60881;55.002;73.232;2022-09-24T14:37:10;186.55;;;52.58;;
72755;SDS011;60881;55.002;73.232;2022-09-24T14:39:58;180.82;;;48.45;;
72755;SDS011;60881;55.002;73.232;2022-09-24T14:45:00;142.15;;;39.70;;
72755;SDS011;60881;55.002;73.232;2022-09-24T14:47:34;154.77;;;40.75;;
72755;SDS011;60881;55.002;73.232;2022-09-24T14:50:02;145.70;;;36.92;;
72755;SDS011;60881;55.002;73.232;2022-09-24T14:52:32;115.57;;;33.60;;
72755;SDS011;60881;55.002;73.232;2022-09-24T14:55:11;111.78;;;29.33;;
72755;SDS011;60881;55.002;73.232;2022-09-24T14:57:39;104.53;;;27.15;;
72755;SDS011;60881;55.002;73.232;2022-09-24T15:00:33;144.65;;;29.65;;
72755;SDS011;60881;55.002;73.232;2022-09-24T15:03:11;140.05;;;35.42;;
72755;SDS011;60881;55.002;73.232;2022-09-24T15:05:40;127.07;;;35.90;;
72755;SDS011;60881;55.002;73.232;2022-09-24T15:08:21;156.45;;;44.88;;
72755;SDS011;60881;55.002;73.232;2022-09-24T15:11:00;173.23;;;51.90;;
72755;SDS011;60881;55.002;73.232;2022-09-24T15:13:29;179.02;;;53.33;;
72755;SDS011;60881;55.002;73.232;2022-09-24T15:19:11;164.70;;;47.08;;
72755;SDS011;60881;55.002;73.232;2022-09-24T15:21:42;185.43;;;62.60;;
72755;SDS011;60881;55.002;73.232;2022-09-24T15:24:10;180.93;;;64.28;;
72755;SDS011;60881;55.002;73.232;2022-09-24T15:26:38;148.10;;;50.90;;
72755;SDS011;60881;55.002;73.232;2022-09-24T15:29:06;198.70;;;61.00;;
72755;SDS011;60881;55.002;73.232;2022-09-24T15:31:42;212.13;;;72.10;;
72755;SDS011;60881;55.002;73.232;2022-09-24T15:34:08;250.65;;;85.60;;
72755;SDS011;60881;55.002;73.232;2022-09-24T15:36:40;230.00;;;88.90;;
72755;SDS011;60881;55.002;73.232;2022-09-24T15:39:08;212.55;;;89.28;;
72755;SDS011;60881;55.002;73.232;2022-09-24T15:41:45;238.15;;;88.68;;
72755;SDS011;60881;55.002;73.232;2022-09-24T15:44:22;216.05;;;84.82;;
72755;SDS011;60881;55.002;73.232;2022-09-24T15:46:54;204.57;;;78.88;;
72755;SDS011;60881;55.002;73.232;2022-09-24T15:49:21;222.32;;;79.65;;
72755;SDS011;60881;55.002;73.232;2022-09-24T15:51:52;212.07;;;77.05;;
72755;SDS011;60881;55.002;73.232;2022-09-24T15:54:32;206.60;;;70.78;;
72755;SDS011;60881;55.002;73.232;2022-09-24T15:57:01;207.48;;;69.60;;
72755;SDS011;60881;55.002;73.232;2022-09-24T15:59:29;212.45;;;76.60;;
72755;SDS011;60881;55.002;73.232;2022-09-24T16:02:01;199.60;;;70.05;;
72755;SDS011;60881;55.002;73.232;2022-09-24T16:04:36;416.95;;;77.63;;
72755;SDS011;60881;55.002;73.232;2022-09-24T16:07:07;228.10;;;75.10;;
72755;SDS011;60881;55.002;73.232;2022-09-24T16:09:34;213.15;;;74.40;;
72755;SDS011;60881;55.002;73.232;2022-09-24T16:12:00;198.25;;;75.00;;
72755;SDS011;60881;55.002;73.232;2022-09-24T16:14:37;173.00;;;55.35;;
72755;SDS011;60881;55.002;73.232;2022-09-24T16:17:06;193.77;;;57.28;;
72755;SDS011;60881;55.002;73.232;2022-09-24T16:19:36;197.50;;;58.65;;
72755;SDS011;60881;55.002;73.232;2022-09-24T16:22:04;197.95;;;60.65;;
72755;SDS011;60881;55.002;73.232;2022-09-24T16:24:31;173.32;;;64.90;;
72755;SDS011;60881;55.002;73.232;2022-09-24T16:26:58;179.20;;;66.68;;
72755;SDS011;60881;55.002;73.232;2022-09-24T16:29:24;175.10;;;50.80;;
72755;SDS011;60881;55.002;73.232;2022-09-24T16:31:51;154.65;;;39.63;;
72755;SDS011;60881;55.002;73.232;2022-09-24T16:34:17;164.85;;;44.55;;
72755;SDS011;60881;55.002;73.232;2022-09-24T16:36:44;196.32;;;49.63;;
72755;SDS011;60881;55.002;73.232;2022-09-24T16:39:11;175.85;;;51.33;;
72755;SDS011;60881;55.002;73.232;2022-09-24T16:41:40;194.45;;;63.65;;
72755;SDS011;60881;55.002;73.232;2022-09-24T16:44:09;157.68;;;49.30;;
72755;SDS011;60881;55.002;73.232;2022-09-24T16:46:42;181.45;;;50.20;;